Time;durP1;ratioP1;P1;durP2;ratioP2;P2;SDS_P1;SDS_P2;PMS_P1;PMS_P2;Temp;Humidity;BMP_temperature;BMP_pressure;BME280_temperature;BME280_humidity;BME280_pressure;Samples;Min_cycle;Max_cycle;Signal;HPM_P1;HPM_P2
2023/10/28 00:01:55;;;;;;;1999.90;999.90;;;;;;;8.64;100.00;93111.66;5008000;28;20210;-58
2023/10/28 00:04:23;;;;;;;1999.90;999.90;;;;;;;8.81;100.00;93132.00;5007595;28;20203;-59
2023/10/28 00:06:48;;;;;;;1999.90;999.90;;;;;;;9.00;100.00;93155.38;5007593;28;20172;-58
2023/10/28 00:09:15;;;;;;;1999.90;999.90;;;;;;;9.17;100.00;93145.00;5007693;28;20175;-58
2023/10/28 00:11:40;;;;;;;1999.90;999.90;;;;;;;9.22;100.00;93169.69;5007446;28;20178;-58
2023/10/28 00:14:05;;;;;;;1999.90;999.90;;;;;;;9.21;100.00;93146.38;5008018;28;20238;-58
2023/10/28 00:16:31;;;;;;;1999.90;999.90;;;;;;;9.20;100.00;93150.31;5007425;28;20198;-58
2023/10/28 00:18:56;;;;;;;1999.90;999.90;;;;;;;9.17;100.00;93145.00;5007794;28;20463;-58
2023/10/28 00:21:22;;;;;;;1999.90;999.90;;;;;;;9.16;100.00;93144.25;5007521;28;20227;-58
2023/10/28 00:23:47;;;;;;;1999.90;999.90;;;;;;;9.14;100.00;93135.75;5007410;28;20179;-57
2023/10/28 00:26:12;;;;;;;1999.90;999.90;;;;;;;9.11;100.00;93131.22;5007380;28;20399;-57
2023/10/28 00:28:39;;;;;;;1999.90;999.90;;;;;;;9.09;100.00;93133.66;5007417;28;20171;-59
2023/10/28 00:31:05;;;;;;;1999.90;999.90;;;;;;;9.03;100.00;93129.97;5007883;28;20179;-57
2023/10/28 00:33:30;;;;;;;1999.90;999.90;;;;;;;9.05;100.00;93127.59;5007403;28;20172;-58
2023/10/28 00:35:56;;;;;;;1999.90;999.90;;;;;;;9.02;100.00;93133.91;5007257;28;20182;-58
2023/10/28 00:38:22;;;;;;;1999.90;999.90;;;;;;;9.03;100.00;93135.44;5010364;28;20204;-58
2023/10/28 00:40:48;;;;;;;1999.90;999.90;;;;;;;9.03;100.00;93140.13;5010706;28;20277;-58
2023/10/28 00:43:13;;;;;;;1999.90;999.90;;;;;;;9.02;100.00;93123.03;5011086;28;20167;-58
2023/10/28 00:45:39;;;;;;;1999.90;999.90;;;;;;;8.97;100.00;93122.88;5011012;28;20174;-58
2023/10/28 00:48:06;;;;;;;1999.90;999.90;;;;;;;8.95;100.00;93117.88;5011029;28;20506;-58
2023/10/28 00:50:32;;;;;;;1999.90;999.90;;;;;;;8.95;100.00;93131.47;5011107;28;20171;-58
2023/10/28 00:53:00;;;;;;;1999.90;999.90;;;;;;;8.92;100.00;93124.19;5010921;28;20172;-58
2023/10/28 00:55:29;;;;;;;1999.90;999.90;;;;;;;8.90;100.00;93131.28;5011008;28;20333;-59
2023/10/28 00:57:55;;;;;;;1999.90;999.90;;;;;;;8.90;100.00;93121.19;5010791;28;20171;-58
2023/10/28 01:00:21;;;;;;;1999.90;999.90;;;;;;;8.90;100.00;93118.47;5010647;28;20210;-58
2023/10/28 01:02:46;;;;;;;1999.90;999.90;;;;;;;8.92;100.00;93118.75;5010923;28;20171;-57
2023/10/28 01:05:14;;;;;;;1999.90;999.90;;;;;;;8.91;100.00;93111.81;5011221;28;20218;-57
2023/10/28 01:07:41;;;;;;;1999.90;999.90;;;;;;;8.88;100.00;93120.84;5010685;28;20167;-56
2023/10/28 01:10:08;;;;;;;1999.90;999.90;;;;;;;8.88;100.00;93120.84;5011154;28;20194;-57
2023/10/28 01:12:34;;;;;;;1999.90;999.90;;;;;;;8.88;100.00;93129.03;5010440;28;20181;-57
2023/10/28 01:15:01;;;;;;;1999.90;999.90;;;;;;;8.89;100.00;93125.09;5010431;28;20200;-58
2023/10/28 01:17:27;;;;;;;1999.90;999.90;;;;;;;8.88;100.00;93128.25;5010885;28;20358;-56
2023/10/28 01:19:53;;;;;;;1999.90;999.90;;;;;;;8.89;100.00;93132.50;5010437;28;20167;-56
2023/10/28 01:22:20;;;;;;;1999.90;999.90;;;;;;;8.90;100.00;93137.50;5010846;28;20203;-58
2023/10/28 01:24:45;;;;;;;1999.90;999.90;;;;;;;8.92;100.00;93137.81;5010735;28;20479;-57
2023/10/28 01:27:11;;;;;;;1999.90;999.90;;;;;;;8.91;100.00;93138.25;5010271;28;20171;-57
2023/10/28 01:29:36;;;;;;;1999.90;999.90;;;;;;;8.94;100.00;93137.34;5010785;28;20172;-58
2023/10/28 01:32:05;;;;;;;1999.90;999.90;;;;;;;8.99;100.00;93151.13;5010194;28;20399;-58
2023/10/28 01:34:32;;;;;;;1999.90;999.90;;;;;;;8.98;100.00;93143.41;5010054;28;20176;-58
2023/10/28 01:36:58;;;;;;;1999.90;999.90;;;;;;;9.02;100.00;93149.47;5010055;28;20177;-57
2023/10/28 01:39:23;;;;;;;1999.90;999.90;;;;;;;9.05;100.00;93138.47;5010071;28;20518;-57
2023/10/28 01:41:49;;;;;;;1999.90;999.90;;;;;;;9.06;100.00;93133.75;5007045;28;20228;-58
2023/10/28 01:44:16;;;;;;;1999.90;999.90;;;;;;;9.06;100.00;93153.59;5007108;28;20176;-57
2023/10/28 01:46:41;;;;;;;1999.90;999.90;;;;;;;9.08;100.00;93147.69;5006644;28;20243;-57
2023/10/28 01:49:07;;;;;;;1999.90;999.90;;;;;;;9.10;100.00;93165.09;5005646;28;20176;-58
2023/10/28 01:51:32;;;;;;;1999.90;999.90;;;;;;;9.09;100.00;93177.19;5007024;28;20239;-56
2023/10/28 01:53:58;;;;;;;1999.90;999.90;;;;;;;9.13;100.00;93175.09;5007029;28;20243;-58
2023/10/28 01:56:23;;;;;;;1999.90;999.90;;;;;;;9.12;100.00;93187.19;5007221;28;20182;-58
2023/10/28 01:58:49;;;;;;;1999.90;999.90;;;;;;;9.11;100.00;93195.81;5006268;28;20172;-58
2023/10/28 02:01:14;;;;;;;1999.90;999.90;;;;;;;9.14;100.00;93197.66;5006306;28;20200;-57
2023/10/28 02:03:40;;;;;;;1999.90;999.90;;;;;;;9.10;100.00;93200.50;5006550;28;20204;-58
2023/10/28 02:06:07;;;;;;;1999.90;999.90;;;;;;;9.11;100.00;93212.88;5006453;28;20183;-58
2023/10/28 02:08:33;;;;;;;1999.90;999.90;;;;;;;9.11;100.00;93209.44;5006453;28;20172;-58
2023/10/28 02:10:59;;;;;;;1999.90;999.90;;;;;;;9.11;100.00;93218.34;5006246;28;20219;-59
2023/10/28 02:13:24;;;;;;;1999.90;999.90;;;;;;;9.06;100.00;93216.19;5006228;28;20184;-57
2023/10/28 02:15:49;;;;;;;1999.90;999.90;;;;;;;9.07;100.00;93225.88;5006454;28;20172;-58
2023/10/28 02:18:18;;;;;;;1999.90;999.90;;;;;;;9.06;100.00;93224.38;5006573;28;20181;-58
2023/10/28 02:20:47;;;;;;;1999.90;999.90;;;;;;;9.10;100.00;93235.88;5005911;28;20206;-58
2023/10/28 02:23:14;;;;;;;1999.90;999.90;;;;;;;9.05;100.00;93239.19;5006002;28;20195;-58
2023/10/28 02:25:42;;;;;;;1999.90;999.90;;;;;;;9.10;100.00;93248.72;5005909;28;20175;-58
2023/10/28 02:28:09;;;;;;;1999.90;999.90;;;;;;;9.10;100.00;93254.94;5006260;28;20244;-57
2023/10/28 02:30:39;;;;;;;1999.90;999.90;;;;;;;9.16;100.00;93269.50;5005823;28;20183;-56
2023/10/28 02:33:04;;;;;;;1999.90;999.90;;;;;;;9.17;100.00;93286.59;5005839;28;20519;-57
2023/10/28 02:35:29;;;;;;;1999.90;999.90;;;;;;;9.17;100.00;93289.31;5005991;28;20169;-58
2023/10/28 02:37:55;;;;;;;1999.90;999.90;;;;;;;9.25;100.00;93304.19;5005778;28;20177;-57
2023/10/28 02:40:20;;;;;;;1999.90;999.90;;;;;;;9.19;100.00;93316.88;5005472;28;20239;-59
2023/10/28 02:42:45;;;;;;;1999.90;999.90;;;;;;;9.18;100.00;93326.25;5005524;28;20179;-58
2023/10/28 02:45:11;;;;;;;1999.90;999.90;;;;;;;9.18;100.00;93348.03;5005500;28;20183;-58
2023/10/28 02:47:36;;;;;;;1999.90;999.90;;;;;;;9.18;100.00;93365.09;5005513;28;20171;-58
2023/10/28 02:50:02;;;;;;;1999.90;999.90;;;;;;;9.18;100.00;93370.56;5005854;28;20178;-59
2023/10/28 02:52:27;;;;;;;1999.90;999.90;;;;;;;9.17;100.00;93379.94;5005986;28;20193;-59
2023/10/28 02:54:53;;;;;;;1999.90;999.90;;;;;;;9.22;100.00;93395.69;5005828;28;20172;-58
2023/10/28 02:57:18;;;;;;;1999.90;999.90;;;;;;;9.24;100.00;93423.25;5005318;28;20172;-58
2023/10/28 02:59:44;;;;;;;1999.90;999.90;;;;;;;9.28;100.00;93461.25;5005096;28;20470;-58
2023/10/28 03:02:10;;;;;;;1999.90;999.90;;;;;;;9.29;100.00;93485.31;5006013;28;20206;-59
2023/10/28 03:04:35;;;;;;;1999.90;999.90;;;;;;;9.29;100.00;93501.66;5005204;28;20199;-59
2023/10/28 03:07:00;;;;;;;1999.90;999.90;;;;;;;9.24;100.00;93515.84;5005413;28;20244;-60
2023/10/28 03:09:26;;;;;;;1999.90;999.90;;;;;;;9.24;100.00;93529.47;5004807;28;20173;-59
2023/10/28 03:11:51;;;;;;;1999.90;999.90;;;;;;;9.16;100.00;93546.47;5005584;28;20173;-58
2023/10/28 03:14:16;;;;;;;1999.90;999.90;;;;;;;9.14;100.00;93549.63;5005316;28;20196;-58
2023/10/28 03:16:44;;;;;;;1999.90;999.90;;;;;;;9.05;100.00;93565.09;5004938;28;20372;-59
2023/10/28 03:19:11;;;;;;;1999.90;999.90;;;;;;;8.96;100.00;93571.22;5004891;28;20463;-58
2023/10/28 03:21:36;;;;;;;1999.90;999.90;;;;;;;8.89;100.00;93549.66;5005251;28;20203;-58
2023/10/28 03:24:01;;;;;;;1999.90;999.90;;;;;;;8.85;100.00;93557.19;5004891;28;20203;-58
2023/10/28 03:26:27;;;;;;;1999.90;999.90;;;;;;;8.79;100.00;93558.94;5004828;28;20236;-58
2023/10/28 03:28:52;;;;;;;1999.90;999.90;;;;;;;8.77;100.00;93560.56;5005177;28;20219;-58
2023/10/28 03:31:17;;;;;;;1999.90;999.90;;;;;;;8.76;100.00;93551.66;5004829;28;20359;-59
2023/10/28 03:33:43;;;;;;;1999.90;999.90;;;;;;;8.63;100.00;93541.97;5005110;28;20177;-58
2023/10/28 03:36:09;;;;;;;1999.90;999.90;;;;;;;8.56;100.00;93537.50;5004418;28;20172;-59
2023/10/28 03:38:34;;;;;;;1999.90;999.90;;;;;;;8.54;100.00;93529.03;5004559;28;20226;-58
2023/10/28 03:41:07;;;;;;;1999.90;999.90;;;;;;;8.52;100.00;93520.53;5004478;28;20227;-59
2023/10/28 03:43:32;;;;;;;1999.90;999.90;;;;;;;8.52;100.00;93514.34;5004668;28;20177;-59
2023/10/28 03:45:58;;;;;;;1999.90;999.90;;;;;;;8.56;100.00;93521.16;5004570;28;20184;-58
2023/10/28 03:48:23;;;;;;;1999.90;999.90;;;;;;;8.58;100.00;93513.34;5004444;28;20179;-58
2023/10/28 03:51:04;;;;;;;1999.90;999.90;;;;;;;8.67;100.00;93510.72;5004392;28;20218;-59
2023/10/28 03:53:30;;;;;;;1999.90;999.90;;;;;;;8.74;100.00;93526.81;5004600;28;20263;-59
2023/10/28 03:55:55;;;;;;;1999.90;999.90;;;;;;;8.78;100.00;93532.91;5004320;28;20172;-59
2023/10/28 03:58:21;;;;;;;1999.90;999.90;;;;;;;8.80;100.00;93540.63;5004354;28;20243;-59
2023/10/28 04:00:53;;;;;;;1999.90;999.90;;;;;;;8.83;100.00;93561.53;5004195;28;20218;-59
2023/10/28 04:03:20;;;;;;;1999.90;999.90;;;;;;;8.86;100.00;93572.31;5004776;28;20182;-59
2023/10/28 04:05:46;;;;;;;1999.90;999.90;;;;;;;8.92;100.00;93581.44;5004315;28;20207;-59
2023/10/28 04:08:12;;;;;;;1999.90;999.90;;;;;;;8.93;100.00;93599.31;5004727;28;20176;-59
2023/10/28 04:10:37;;;;;;;1999.90;999.90;;;;;;;8.93;100.00;93610.19;5004254;28;20183;-58
2023/10/28 04:13:03;;;;;;;1999.90;999.90;;;;;;;8.93;100.00;93626.53;5007062;28;20371;-59
2023/10/28 04:15:29;;;;;;;1999.90;999.90;;;;;;;8.98;100.00;93634.16;5008312;28;20167;-59
2023/10/28 04:17:54;;;;;;;1999.90;999.90;;;;;;;9.04;100.00;93651.47;5008682;28;20247;-58
2023/10/28 04:20:20;;;;;;;1999.90;999.90;;;;;;;9.08;100.00;93646.69;5008258;28;20382;-58
2023/10/28 04:22:45;;;;;;;1999.90;999.90;;;;;;;9.12;100.00;93660.97;5008208;28;20171;-59
2023/10/28 04:25:10;;;;;;;1999.90;999.90;;;;;;;9.16;100.00;93685.34;5008489;28;20235;-59
2023/10/28 04:27:36;;;;;;;1999.90;999.90;;;;;;;9.21;100.00;93701.91;5008588;28;20255;-58
2023/10/28 04:30:04;;;;;;;1999.90;999.90;;;;;;;9.17;100.00;93709.41;5008699;28;20177;-61
2023/10/28 04:32:30;;;;;;;1999.90;999.90;;;;;;;9.21;100.00;93726.41;5008450;28;20199;-60
2023/10/28 04:34:56;;;;;;;1999.90;999.90;;;;;;;9.29;100.00;93746.78;5008069;28;20176;-59
2023/10/28 04:37:21;;;;;;;1999.90;999.90;;;;;;;9.25;100.00;93767.91;5008593;28;20216;-60
2023/10/28 04:39:46;;;;;;;1999.90;999.90;;;;;;;9.27;100.00;93776.44;5009064;28;20233;-59
2023/10/28 04:42:12;;;;;;;1999.90;999.90;;;;;;;9.31;100.00;93793.44;5011546;28;20215;-59
2023/10/28 04:44:37;;;;;;;1999.90;999.90;;;;;;;9.28;100.00;93791.56;5011453;28;20197;-59
2023/10/28 04:47:02;;;;;;;1999.90;999.90;;;;;;;9.26;100.00;93802.13;5011593;28;20176;-59
2023/10/28 04:49:28;;;;;;;1999.90;999.90;;;;;;;9.34;100.00;93814.34;5011404;28;20183;-59
2023/10/28 04:51:54;;;;;;;1999.90;999.90;;;;;;;9.32;100.00;93827.63;5011426;28;20469;-58
2023/10/28 04:54:19;;;;;;;1999.90;999.90;;;;;;;9.20;100.00;93842.00;5010985;28;20249;-59
2023/10/28 04:56:45;;;;;;;1999.90;999.90;;;;;;;9.12;100.00;93835.22;5011360;28;20175;-59
2023/10/28 04:59:10;;;;;;;1999.90;999.90;;;;;;;9.09;100.00;93836.09;5010744;28;20210;-59
2023/10/28 05:01:35;;;;;;;1999.90;999.90;;;;;;;9.01;100.00;93840.19;5010580;28;20203;-58
2023/10/28 05:04:01;;;;;;;1999.90;999.90;;;;;;;8.97;100.00;93823.19;5011286;28;20183;-59
2023/10/28 05:06:26;;;;;;;1999.90;999.90;;;;;;;8.99;100.00;93812.63;5011465;28;20246;-59
2023/10/28 05:08:51;;;;;;;1999.90;999.90;;;;;;;8.92;100.00;93821.00;5011090;28;20175;-59
2023/10/28 05:11:17;;;;;;;1999.90;999.90;;;;;;;8.93;100.00;93827.97;5010614;28;20172;-58
2023/10/28 05:13:42;;;;;;;1999.90;999.90;;;;;;;8.92;100.00;93829.16;5010988;28;20176;-59
2023/10/28 05:16:09;;;;;;;1999.90;999.90;;;;;;;8.92;100.00;93831.88;5010338;28;20179;-58
2023/10/28 05:18:35;;;;;;;1999.90;999.90;;;;;;;8.89;100.00;93821.84;5010924;28;20182;-59
2023/10/28 05:21:01;;;;;;;1999.90;999.90;;;;;;;8.84;100.00;93811.50;5010834;28;20207;-59
2023/10/28 05:23:26;;;;;;;1999.90;999.90;;;;;;;8.81;100.00;93815.06;5008770;28;20180;-59
2023/10/28 05:25:53;;;;;;;1999.90;999.90;;;;;;;8.77;100.00;93808.97;5010358;28;20175;-59
2023/10/28 05:28:19;;;;;;;1999.90;999.90;;;;;;;8.76;100.00;93812.88;5010769;28;20246;-59
2023/10/28 05:30:45;;;;;;;1999.90;999.90;;;;;;;8.76;100.00;93801.22;5010657;28;20180;-59
2023/10/28 05:33:11;;;;;;;1999.90;999.90;;;;;;;8.74;100.00;93803.63;5010165;28;20179;-59
2023/10/28 05:35:36;;;;;;;1999.90;999.90;;;;;;;8.71;100.00;93799.78;5010382;28;20249;-59
2023/10/28 05:38:02;;;;;;;1999.90;999.90;;;;;;;8.74;100.00;93798.19;5010061;28;20183;-58
2023/10/28 05:40:27;;;;;;;1999.90;999.90;;;;;;;8.81;100.00;93803.41;5009806;28;20247;-59
2023/10/28 05:42:54;;;;;;;1999.90;999.90;;;;;;;8.81;100.00;93801.47;5010426;28;20341;-59
2023/10/28 05:45:20;;;;;;;1999.90;999.90;;;;;;;8.83;100.00;93809.97;5010033;28;20172;-58
2023/10/28 05:47:46;;;;;;;1999.90;999.90;;;;;;;8.88;100.00;93808.66;5010519;28;20244;-56
2023/10/28 05:50:12;;;;;;;1999.90;999.90;;;;;;;8.89;100.00;93810.97;5010439;28;20183;-58
2023/10/28 05:52:40;;;;;;;1999.90;999.90;;;;;;;8.89;100.00;93821.84;5009725;28;20179;-57
2023/10/28 05:55:12;;;;;;;1999.90;999.90;;;;;;;8.89;100.00;93816.41;5010372;28;20172;-58
2023/10/28 05:57:37;;;;;;;1999.90;999.90;;;;;;;8.94;100.00;93818.63;5009736;28;20176;-57
2023/10/28 06:00:03;;;;;;;1999.90;999.90;;;;;;;8.93;100.00;93833.41;5010046;28;20183;-59
2023/10/28 06:02:29;;;;;;;1999.90;999.90;;;;;;;8.96;100.00;93839.97;5010033;28;20176;-60
2023/10/28 06:04:54;;;;;;;1999.90;999.90;;;;;;;8.91;100.00;93841.25;5010074;28;20251;-58
2023/10/28 06:07:19;;;;;;;1999.90;999.90;;;;;;;8.98;100.00;93846.50;5009631;28;20175;-58
2023/10/28 06:09:45;;;;;;;1999.90;999.90;;;;;;;9.57;100.00;93844.03;5009987;28;20175;-59
2023/10/28 06:12:11;;;;;;;1999.90;999.90;;;;;;;10.34;100.00;93872.84;5009976;28;20186;-59
2023/10/28 06:14:40;;;;;;;1999.90;999.90;;;;;;;10.88;100.00;93923.28;5009978;28;20172;-59
2023/10/28 06:17:05;;;;;;;1999.90;999.90;;;;;;;11.22;100.00;93953.34;5009952;28;20178;-59
2023/10/28 06:19:31;;;;;;;1999.90;999.90;;;;;;;11.85;100.00;93991.41;5009840;28;20244;-59
2023/10/28 06:21:56;;;;;;;1999.90;999.90;;;;;;;12.27;100.00;94030.91;5009153;28;20211;-59
2023/10/28 06:24:21;;;;;;;1999.90;999.90;;;;;;;12.70;100.00;94058.22;5009258;28;20179;-59
2023/10/28 06:26:47;;;;;;;1999.90;999.90;;;;;;;13.30;100.00;94067.66;5009165;28;20242;-59
2023/10/28 06:29:12;;;;;;;1999.90;999.90;;;;;;;13.91;100.00;94083.91;5009250;28;20183;-59
2023/10/28 06:31:39;;;;;;;1999.90;999.90;;;;;;;14.27;100.00;94100.41;5008959;28;20203;-59
2023/10/28 06:34:05;;;;;;;1999.90;999.90;;;;;;;14.58;100.00;94114.75;5009118;28;20175;-58
2023/10/28 06:36:32;;;;;;;1999.90;999.90;;;;;;;14.72;100.00;94118.84;5008903;28;20238;-59
2023/10/28 06:38:58;;;;;;;1999.90;999.90;;;;;;;15.30;100.00;94125.56;5009563;28;20203;-58
2023/10/28 06:41:24;;;;;;;1999.90;999.90;;;;;;;15.90;100.00;94133.72;5008619;28;20231;-59
2023/10/28 06:43:50;;;;;;;1999.90;999.90;;;;;;;16.54;100.00;94125.78;5008730;28;20199;-59
2023/10/28 06:46:16;;;;;;;1999.90;999.90;;;;;;;16.24;100.00;94133.94;5009332;28;20181;-58
2023/10/28 06:48:41;;;;;;;1999.90;999.90;;;;;;;15.69;100.00;94146.53;5009281;28;20198;-58
2023/10/28 06:51:06;;;;;;;1999.90;999.90;;;;;;;16.23;100.00;94139.94;5008849;28;20191;-58
2023/10/28 06:53:32;;;;;;;1999.90;999.90;;;;;;;16.42;100.00;94142.13;5009515;28;20205;-60
2023/10/28 06:56:02;;;;;;;1999.90;999.90;;;;;;;16.87;100.00;94148.47;5008890;28;20182;-58
2023/10/28 06:58:28;;;;;;;1999.90;999.90;;;;;;;16.76;100.00;94148.28;5009078;28;20202;-58
2023/10/28 07:00:54;;;;;;;1999.90;999.90;;;;;;;14.90;100.00;94163.56;5009063;28;20250;-58
2023/10/28 07:03:19;;;;;;;1999.90;999.90;;;;;;;14.51;100.00;94169.25;5008183;28;20179;-58
2023/10/28 07:05:45;;;;;;;1999.90;999.90;;;;;;;15.73;100.00;94158.13;5008556;28;20199;-59
2023/10/28 07:08:11;;;;;;;1999.90;999.90;;;;;;;17.10;100.00;94155.91;5008476;28;20419;-58
2023/10/28 07:10:37;;;;;;;1999.90;999.90;;;;;;;17.95;100.00;94155.56;5008869;28;20182;-59
2023/10/28 07:13:02;;;;;;;1999.90;999.90;;;;;;;18.89;100.00;94165.84;5008875;28;20179;-58
2023/10/28 07:15:28;;;;;;;1999.90;999.90;;;;;;;18.41;100.00;94170.28;5008273;28;20171;-58
2023/10/28 07:17:54;;;;;;;1999.90;999.90;;;;;;;18.65;100.00;94177.13;5008264;28;20177;-59
2023/10/28 07:20:20;;;;;;;1999.90;999.90;;;;;;;18.38;100.00;94174.03;5008607;28;20199;-58
2023/10/28 07:22:46;;;;;;;1999.90;999.90;;;;;;;18.55;100.00;94167.47;5008185;28;20175;-58
2023/10/28 07:25:12;;;;;;;1999.90;999.90;;;;;;;19.06;100.00;94173.06;5008634;28;20179;-57
2023/10/28 07:27:37;;;;;;;1999.90;999.90;;;;;;;20.23;100.00;94172.09;5008075;28;20176;-58
2023/10/28 07:30:03;;;;;;;1999.90;999.90;;;;;;;20.79;100.00;94169.09;5008528;28;20246;-58
2023/10/28 07:32:30;;;;;;;1999.90;999.90;;;;;;;20.97;100.00;94174.22;5007955;28;20214;-58
2023/10/28 07:34:55;;;;;;;1999.90;999.90;;;;;;;21.36;100.00;94177.88;5008447;28;20175;-59
2023/10/28 07:37:21;;;;;;;1999.90;999.90;;;;;;;21.49;96.36;94189.25;5008020;28;20182;-54
2023/10/28 07:39:46;;;;;;;1999.90;999.90;;;;;;;21.25;94.95;94188.97;5007909;28;20237;-51
2023/10/28 07:42:13;;;;;;;1999.90;999.90;;;;;;;21.29;96.84;94195.03;5007936;28;20203;-60
2023/10/28 07:44:39;;;;;;;1999.90;999.90;;;;;;;21.58;94.02;94193.81;5008490;28;20209;-55
2023/10/28 07:47:05;;;;;;;1999.90;999.90;;;;;;;20.62;99.31;94207.13;5007188;28;20250;-54
2023/10/28 07:49:30;;;;;;;1999.90;999.90;;;;;;;20.05;100.00;94205.72;5007647;28;20171;-57
2023/10/28 07:51:55;;;;;;;1999.90;999.90;;;;;;;19.51;100.00;94210.31;5007698;28;20174;-57
2023/10/28 07:54:21;;;;;;;1999.90;999.90;;;;;;;19.44;100.00;94214.28;5007711;28;20171;-56
2023/10/28 07:56:46;;;;;;;1999.90;999.90;;;;;;;19.07;100.00;94209.81;5007678;28;20171;-56
2023/10/28 07:59:11;;;;;;;1999.90;999.90;;;;;;;19.40;100.00;94218.50;5007860;28;20225;-56
2023/10/28 08:01:39;;;;;;;1999.90;999.90;;;;;;;20.06;100.00;94218.34;5008144;28;20233;-57
2023/10/28 08:04:05;;;;;;;1999.90;999.90;;;;;;;20.43;100.00;94230.97;5007613;28;20172;-55
2023/10/28 08:06:30;;;;;;;1999.90;999.90;;;;;;;20.35;100.00;94229.91;5007568;28;20246;-56
2023/10/28 08:08:56;;;;;;;1999.90;999.90;;;;;;;19.96;100.00;94231.59;5007583;28;20177;-54
2023/10/28 08:11:24;;;;;;;1999.90;999.90;;;;;;;19.70;99.96;94250.25;5007517;28;20171;-57
2023/10/28 08:13:50;;;;;;;1999.90;999.90;;;;;;;19.27;100.00;94237.50;5007464;28;20175;-58
2023/10/28 08:16:18;;;;;;;1999.90;999.90;;;;;;;19.92;100.00;94236.59;5007755;28;20171;-57
2023/10/28 08:18:47;;;;;;;1999.90;999.90;;;;;;;20.94;98.89;94241.84;5007516;28;20167;-56
2023/10/28 08:21:16;;;;;;;1999.90;999.90;;;;;;;21.37;96.30;94231.41;5007348;28;20241;-58
2023/10/28 08:23:43;;;;;;;1999.90;999.90;;;;;;;21.86;90.23;94231.50;5007411;28;20182;-58
2023/10/28 08:26:10;;;;;;;1999.90;999.90;;;;;;;22.54;86.44;94239.34;5007359;28;20179;-57
2023/10/28 08:28:36;;;;;;;1999.90;999.90;;;;;;;21.85;84.09;94235.56;5007820;28;20182;-57
2023/10/28 08:31:02;;;;;;;1999.90;999.90;;;;;;;22.43;83.71;94236.56;5007376;28;20172;-56
2023/10/28 08:33:28;;;;;;;1999.90;999.90;;;;;;;21.91;78.49;94249.47;5007266;28;20321;-52
2023/10/28 08:35:56;;;;;;;1999.90;999.90;;;;;;;20.61;90.81;94246.47;5007677;28;20175;-53
2023/10/28 08:38:21;;;;;;;1999.90;999.90;;;;;;;19.69;100.00;94240.44;5007222;28;20176;-57
2023/10/28 08:40:47;;;;;;;1999.90;999.90;;;;;;;19.62;100.00;94240.88;5007213;28;20291;-55
2023/10/28 08:43:14;;;;;;;1999.90;999.90;;;;;;;19.11;96.77;94246.34;5007676;28;20190;-56
2023/10/28 08:45:42;;;;;;;1999.90;999.90;;;;;;;18.39;100.00;94248.19;5007221;28;20175;-58
2023/10/28 08:48:10;;;;;;;1999.90;999.90;;;;;;;18.46;100.00;94249.78;5007673;28;20174;-57
2023/10/28 08:50:38;;;;;;;1999.90;999.90;;;;;;;18.22;100.00;94260.22;5007085;28;20171;-57
2023/10/28 08:53:03;;;;;;;1999.90;999.90;;;;;;;17.30;100.00;94249.84;5007137;28;20449;-55
2023/10/28 08:55:30;;;;;;;1999.90;999.90;;;;;;;17.02;100.00;94262.34;5007309;28;20294;-56
2023/10/28 08:57:56;;;;;;;1999.90;999.90;;;;;;;16.74;100.00;94266.53;5007818;28;20171;-56
2023/10/28 09:00:23;;;;;;;1999.90;999.90;;;;;;;16.46;100.00;94256.94;5010774;28;20195;-55
2023/10/28 09:02:49;;;;;;;1999.90;999.90;;;;;;;17.18;100.00;94256.38;5010846;28;20187;-55
2023/10/28 09:05:16;;;;;;;1999.90;999.90;;;;;;;18.48;100.00;94258.38;5010633;28;20182;-56
2023/10/28 09:07:43;;;;;;;1999.90;999.90;;;;;;;19.98;100.00;94267.91;5010567;28;20171;-59
2023/10/28 09:10:10;;;;;;;1999.90;999.90;;;;;;;20.59;92.91;94265.63;5010615;28;20175;-55
2023/10/28 09:12:35;;;;;;;1999.90;999.90;;;;;;;20.95;88.77;94259.28;5010963;28;20178;-61
2023/10/28 09:15:01;;;;;;;1999.90;999.90;;;;;;;21.03;83.69;94265.88;5010437;28;20242;-59
2023/10/28 09:17:26;;;;;;;1999.90;999.90;;;;;;;21.32;84.31;94266.25;5011048;28;20210;-59
2023/10/28 09:19:52;;;;;;;1999.90;999.90;;;;;;;21.41;79.69;94268.81;5010733;28;20203;-59
2023/10/28 09:22:17;;;;;;;1999.90;999.90;;;;;;;21.20;82.34;94259.13;5010826;28;20199;-61
2023/10/28 09:24:52;;;;;;;1999.90;999.90;;;;;;;21.33;83.65;94267.78;5010660;28;20168;-64
2023/10/28 09:27:17;;;;;;;1999.90;999.90;;;;;;;21.08;81.13;94273.47;5010736;28;20229;-62
2023/10/28 09:29:43;;;;;;;1999.90;999.90;;;;;;;21.13;78.21;94276.25;5010218;28;20176;-71
2023/10/28 09:32:09;;;;;;;1999.90;999.90;;;;;;;20.84;82.73;94268.31;5010226;28;20186;-59
2023/10/28 09:34:35;;;;;;;1999.90;999.90;;;;;;;20.61;88.72;94269.41;5010135;28;20244;-60
2023/10/28 09:37:02;;;;;;;1999.90;999.90;;;;;;;21.28;82.86;94265.75;5010150;28;20163;-59
2023/10/28 09:39:28;;;;;;;1999.90;999.90;;;;;;;20.79;82.37;94259.94;5009696;28;20202;-59
2023/10/28 09:41:55;;;;;;;1999.90;999.90;;;;;;;20.93;81.46;94254.22;5010058;28;20230;-59
2023/10/28 09:44:20;;;;;;;1999.90;999.90;;;;;;;21.37;81.21;94243.28;5009975;28;20167;-59
2023/10/28 09:46:48;;;;;;;1999.90;999.90;;;;;;;21.45;79.25;94255.44;5009884;28;20174;-59
2023/10/28 09:49:17;;;;;;;1999.90;999.90;;;;;;;21.41;79.13;94252.13;5009834;28;20178;-60
2023/10/28 09:51:46;;;;;;;1999.90;999.90;;;;;;;22.26;73.31;94247.72;5009750;28;20171;-62
2023/10/28 09:54:19;;;;;;;1999.90;999.90;;;;;;;21.81;72.74;94246.19;5009736;28;20210;-62
2023/10/28 09:56:47;;;;;;;1999.90;999.90;;;;;;;21.64;74.54;94262.03;5010177;28;20159;-62
2023/10/28 09:59:19;;;;;;;1999.90;999.90;;;;;;;22.31;70.78;94262.88;5009657;28;20213;-69
2023/10/28 10:02:11;;;;;;;1999.90;999.90;;;;;;;22.04;67.99;94252.53;5009275;28;20199;-59
2023/10/28 10:04:42;;;;;;;1999.90;999.90;;;;;;;22.60;67.13;94259.59;5010022;28;20195;-60
2023/10/28 10:07:09;;;;;;;1999.90;999.90;;;;;;;22.52;68.12;94253.78;5009524;28;20172;-59
2023/10/28 10:09:42;;;;;;;1999.90;999.90;;;;;;;22.11;68.01;94244.44;5008654;28;20202;-60
2023/10/28 10:12:07;;;;;;;1999.90;999.90;;;;;;;20.96;71.44;94256.00;5009897;28;20182;-59
2023/10/28 10:14:33;;;;;;;1999.90;999.90;;;;;;;20.81;73.84;94247.09;5010106;28;20167;-59
2023/10/28 10:17:05;;;;;;;1999.90;999.90;;;;;;;20.86;75.02;94246.34;5009785;28;20178;-60
2023/10/28 10:19:36;;;;;;;1999.90;999.90;;;;;;;21.72;70.07;94242.88;5009777;28;20156;-59
2023/10/28 10:22:08;;;;;;;1999.90;999.90;;;;;;;22.48;67.29;94236.59;5008837;28;20202;-60
2023/10/28 10:24:33;;;;;;;1999.90;999.90;;;;;;;22.74;66.11;94243.88;5009263;28;20167;-59
2023/10/28 10:27:00;;;;;;;1999.90;999.90;;;;;;;23.10;63.19;94239.97;5009120;28;20167;-59
2023/10/28 10:29:26;;;;;;;1999.90;999.90;;;;;;;22.87;63.86;94224.63;5009335;28;20168;-59
2023/10/28 10:31:52;;;;;;;1999.90;999.90;;;;;;;22.93;62.87;94237.25;5008900;28;20168;-60
2023/10/28 10:34:39;;;;;;;1999.90;999.90;;;;;;;22.04;66.52;94239.38;5009448;28;20174;-59
2023/10/28 10:37:06;;;;;;;1999.90;999.90;;;;;;;22.42;63.79;94227.47;5008679;28;20164;-59
2023/10/28 10:39:46;;;;;;;1999.90;999.90;;;;;;;22.68;64.32;94229.22;5008782;28;20191;-60
2023/10/28 10:42:12;;;;;;;1999.90;999.90;;;;;;;23.50;60.29;94233.72;5008478;28;20214;-59
2023/10/28 10:44:38;;;;;;;1999.90;999.90;;;;;;;23.21;60.98;94229.56;5008732;28;20178;-60
2023/10/28 10:47:08;;;;;;;1999.90;999.90;;;;;;;23.54;59.44;94239.78;5008918;28;20246;-59
2023/10/28 10:49:35;;;;;;;1999.90;999.90;;;;;;;22.28;62.01;94238.84;5008667;28;20332;-60